Celine — HBEF — position and weather

sailwx.info

Track history (hours):
 
Tides and Currents Weather Stations Pressure Air Temp Water Temp Dewpoint Dewpoint Depression Visibility Wind Speed Wind Dir Waves Ship Positions

Celine

Last reported at 2014-Jun-19 08:33 UTC. Time now 2014-Jul-22 09:16 UTC.
Position N 19°06' W 095°30'.
Warning: this ship's position is 33 days out of date.

Length 129 m; draft 7.6 m.

Type: Cargo ship. MMSI: 269057000.

Date/timePositionNaut miles runAvg speedWind from/ knotsBaromVisibWave heightAir tempDewpointWater temp
2014-Jun-19 08:33N 19°06' W 095°30'1313.0
2014-Jun-19 07:33N 19°11' W 095°42'1212.5
2014-Jun-19 06:33N 19°12' W 095°55'1111.1
2014-Jun-19 05:33N 19°12' W 096°07'1 1.1
2014-Jun-19 04:32N 19°12' W 096°08'0 0.0
2014-Jun-19 02:29N 19°12' W 096°08'0 0.0
2014-Jun-19 01:32N 19°12' W 096°08'0 0.0
2014-Jun-19 00:32N 19°12' W 096°08'0 0.0
2014-Jun-18 23:29N 19°12' W 096°08'0 0.0
2014-Jun-18 22:32N 19°12' W 096°08'0 0.0
2014-Jun-18 21:29N 19°12' W 096°08'0 0.0
2014-Jun-18 20:32N 19°12' W 096°08'0 0.0
2014-Jun-18 19:32N 19°12' W 096°08'0 0.0
2014-Jun-18 18:32N 19°12' W 096°08'0 0.0
2014-Jun-18 17:29N 19°12' W 096°08'0 0.0
2014-Jun-18 16:32N 19°12' W 096°08'0 0.0
2014-Jun-18 15:32N 19°12' W 096°08'0 0.0
2014-Jun-18 14:32N 19°12' W 096°08'0 0.0
2014-Jun-18 13:26N 19°12' W 096°08'0 0.0
2014-Jun-18 12:32N 19°12' W 096°08'0 0.0
2014-Jun-18 11:32N 19°12' W 096°08'0 0.0
2014-Jun-18 10:32N 19°12' W 096°08'0 0.0
2014-Jun-18 09:32N 19°12' W 096°08'0 0.0
2014-Jun-18 08:32N 19°12' W 096°08'0 0.0
2014-Jun-18 07:32N 19°12' W 096°08'0 0.0
2014-Jun-18 06:32N 19°12' W 096°08'0 0.0
2014-Jun-18 05:32N 19°12' W 096°08'0 0.0
2014-Jun-18 04:29N 19°12' W 096°08'0 0.0
2014-Jun-18 03:29N 19°12' W 096°08'0 0.0
2014-Jun-18 02:29N 19°12' W 096°08'0 0.0
2014-Jun-18 01:32N 19°12' W 096°08'0 0.0
2014-Jun-18 00:29N 19°12' W 096°08'0 0.0
2014-Jun-17 23:32N 19°12' W 096°08'0 0.0
2014-Jun-17 22:33N 19°12' W 096°08'6 5.9
2014-Jun-17 21:32N 19°11' W 096°02'1 1.1
2014-Jun-17 20:31N 19°11' W 096°01'0 0.1
2014-Jun-17 19:33N 19°11' W 096°01'9 8.8
2014-Jun-17 18:34N 19°15' W 095°53'1212.0
2014-Jun-17 17:33N 19°16' W 095°40'  
2014-Jun-14 22:33N 27°38' W 082°38'1312.7
2014-Jun-14 21:33N 27°48' W 082°29'8 7.8
2014-Jun-14 20:31N 27°55' W 082°25'0 0.0
2014-Jun-14 19:31N 27°55' W 082°25'0 0.0
2014-Jun-14 18:31N 27°55' W 082°25'0 0.0
2014-Jun-14 17:28N 27°55' W 082°25'0 0.0
2014-Jun-14 16:31N 27°55' W 082°25'0 0.0
2014-Jun-14 15:31N 27°55' W 082°25'0 0.0
2014-Jun-14 14:31N 27°55' W 082°25'0 0.0
2014-Jun-14 13:31N 27°55' W 082°25'0 0.0
2014-Jun-14 12:31N 27°55' W 082°25'0 0.0
2014-Jun-14 11:28N 27°55' W 082°25'0 0.0
2014-Jun-14 10:28N 27°55' W 082°25'0 0.0
2014-Jun-14 09:31N 27°55' W 082°25'0 0.0
2014-Jun-14 08:31N 27°55' W 082°25'0 0.0
2014-Jun-14 07:31N 27°55' W 082°25'0 0.0
2014-Jun-14 06:31N 27°55' W 082°25'0 0.0
2014-Jun-14 05:31N 27°55' W 082°25'0 0.0
2014-Jun-14 04:28N 27°55' W 082°25'0 0.0
2014-Jun-14 03:31N 27°55' W 082°25'0 0.0
2014-Jun-14 02:31N 27°55' W 082°25'0 0.0
2014-Jun-14 01:31N 27°55' W 082°25'0 0.0
2014-Jun-14 00:28N 27°55' W 082°25'0 0.0
2014-Jun-13 23:31N 27°55' W 082°25'0 0.0
2014-Jun-13 22:31N 27°55' W 082°25'0 0.0
2014-Jun-13 21:28N 27°55' W 082°25'0 0.0
2014-Jun-13 20:31N 27°55' W 082°25'0 0.0
2014-Jun-13 19:31N 27°55' W 082°25'0 0.0
2014-Jun-13 18:31N 27°55' W 082°25'0 0.0
2014-Jun-13 17:28N 27°55' W 082°25'0 0.0
2014-Jun-13 16:31N 27°55' W 082°25'0 0.0
2014-Jun-13 15:31N 27°55' W 082°25'0 0.0
2014-Jun-13 14:31N 27°55' W 082°25'0 0.2
2014-Jun-13 13:33N 27°55' W 082°25'9 9.0
2014-Jun-13 12:33N 27°47' W 082°31'1312.9
2014-Jun-13 11:33N 27°37' W 082°39'  
Track history (hours):
 
Tides and Currents Weather Stations Pressure Air Temp Water Temp Dewpoint Dewpoint Depression Visibility Wind Speed Wind Dir Waves Ship Positions

Celine

Last reported at 2014-Jun-19 08:33 UTC. Time now 2014-Jul-22 09:16 UTC.
Position N 19°06' W 095°30'.
Warning: this ship's position is 33 days out of date.

Length 129 m; draft 7.6 m.

Type: Cargo ship. MMSI: 269057000.

Date/timePositionNaut miles runAvg speedWind from/ knotsBaromVisibWave heightAir tempDewpointWater temp
2014-Jun-19 08:33N 19°06' W 095°30'1313.0
2014-Jun-19 07:33N 19°11' W 095°42'1212.5
2014-Jun-19 06:33N 19°12' W 095°55'1111.1
2014-Jun-19 05:33N 19°12' W 096°07'1 1.1
2014-Jun-19 04:32N 19°12' W 096°08'0 0.0
2014-Jun-19 02:29N 19°12' W 096°08'0 0.0
2014-Jun-19 01:32N 19°12' W 096°08'0 0.0
2014-Jun-19 00:32N 19°12' W 096°08'0 0.0
2014-Jun-18 23:29N 19°12' W 096°08'0 0.0
2014-Jun-18 22:32N 19°12' W 096°08'0 0.0
2014-Jun-18 21:29N 19°12' W 096°08'0 0.0
2014-Jun-18 20:32N 19°12' W 096°08'0 0.0
2014-Jun-18 19:32N 19°12' W 096°08'0 0.0
2014-Jun-18 18:32N 19°12' W 096°08'0 0.0
2014-Jun-18 17:29N 19°12' W 096°08'0 0.0
2014-Jun-18 16:32N 19°12' W 096°08'0 0.0
2014-Jun-18 15:32N 19°12' W 096°08'0 0.0
2014-Jun-18 14:32N 19°12' W 096°08'0 0.0
2014-Jun-18 13:26N 19°12' W 096°08'0 0.0
2014-Jun-18 12:32N 19°12' W 096°08'0 0.0
2014-Jun-18 11:32N 19°12' W 096°08'0 0.0
2014-Jun-18 10:32N 19°12' W 096°08'0 0.0
2014-Jun-18 09:32N 19°12' W 096°08'0 0.0
2014-Jun-18 08:32N 19°12' W 096°08'0 0.0
2014-Jun-18 07:32N 19°12' W 096°08'0 0.0
2014-Jun-18 06:32N 19°12' W 096°08'0 0.0
2014-Jun-18 05:32N 19°12' W 096°08'0 0.0
2014-Jun-18 04:29N 19°12' W 096°08'0 0.0
2014-Jun-18 03:29N 19°12' W 096°08'0 0.0
2014-Jun-18 02:29N 19°12' W 096°08'0 0.0
2014-Jun-18 01:32N 19°12' W 096°08'0 0.0
2014-Jun-18 00:29N 19°12' W 096°08'0 0.0
2014-Jun-17 23:32N 19°12' W 096°08'0 0.0
2014-Jun-17 22:33N 19°12' W 096°08'6 5.9
2014-Jun-17 21:32N 19°11' W 096°02'1 1.1
2014-Jun-17 20:31N 19°11' W 096°01'0 0.1
2014-Jun-17 19:33N 19°11' W 096°01'9 8.8
2014-Jun-17 18:34N 19°15' W 095°53'1212.0
2014-Jun-17 17:33N 19°16' W 095°40'  
2014-Jun-14 22:33N 27°38' W 082°38'1312.7
2014-Jun-14 21:33N 27°48' W 082°29'8 7.8
2014-Jun-14 20:31N 27°55' W 082°25'0 0.0
2014-Jun-14 19:31N 27°55' W 082°25'0 0.0
2014-Jun-14 18:31N 27°55' W 082°25'0 0.0
2014-Jun-14 17:28N 27°55' W 082°25'0 0.0
2014-Jun-14 16:31N 27°55' W 082°25'0 0.0
2014-Jun-14 15:31N 27°55' W 082°25'0 0.0
2014-Jun-14 14:31N 27°55' W 082°25'0 0.0
2014-Jun-14 13:31N 27°55' W 082°25'0 0.0
2014-Jun-14 12:31N 27°55' W 082°25'0 0.0
2014-Jun-14 11:28N 27°55' W 082°25'0 0.0
2014-Jun-14 10:28N 27°55' W 082°25'0 0.0
2014-Jun-14 09:31N 27°55' W 082°25'0 0.0
2014-Jun-14 08:31N 27°55' W 082°25'0 0.0
2014-Jun-14 07:31N 27°55' W 082°25'0 0.0
2014-Jun-14 06:31N 27°55' W 082°25'0 0.0
2014-Jun-14 05:31N 27°55' W 082°25'0 0.0
2014-Jun-14 04:28N 27°55' W 082°25'0 0.0
2014-Jun-14 03:31N 27°55' W 082°25'0 0.0
2014-Jun-14 02:31N 27°55' W 082°25'0 0.0
2014-Jun-14 01:31N 27°55' W 082°25'0 0.0
2014-Jun-14 00:28N 27°55' W 082°25'0 0.0
2014-Jun-13 23:31N 27°55' W 082°25'0 0.0
2014-Jun-13 22:31N 27°55' W 082°25'0 0.0
2014-Jun-13 21:28N 27°55' W 082°25'0 0.0
2014-Jun-13 20:31N 27°55' W 082°25'0 0.0
2014-Jun-13 19:31N 27°55' W 082°25'0 0.0
2014-Jun-13 18:31N 27°55' W 082°25'0 0.0
2014-Jun-13 17:28N 27°55' W 082°25'0 0.0
2014-Jun-13 16:31N 27°55' W 082°25'0 0.0
2014-Jun-13 15:31N 27°55' W 082°25'0 0.0
2014-Jun-13 14:31N 27°55' W 082°25'0 0.2
2014-Jun-13 13:33N 27°55' W 082°25'9 9.0
2014-Jun-13 12:33N 27°47' W 082°31'1312.9
2014-Jun-13 11:33N 27°37' W 082°39'  

Dump ship's entire track history